Linville Falls, North Carolina
Current Conditions -  °F | °C
As of 6:55 PM on Monday 22 Dec 2014 (Local Time) from KMRN Reporting Station
Overcast Overcast  
Wind Chill: 40°   Ceiling: 900
Heat Index: 40°   Visibility: 10mi
Dew Point: 37°   Wind: 3mph
Humidity: 91%   Direction: 30°NNE
Pressure: 30.08"   Gusts: NA
Location:  35.96°N, 81.94°W
Report Text: KMRN 222355Z AUTO 03003KT 10SM OVC009 04/03 A3008 RMK AO2 T00430030 10052 20043
Loading
Personal Weather Stations






























Interactive Weather Map New forecast layout! Learn more

10-Day Weather Forecast

Advertisements
Track Severe Weather on mobile